Time;durP1;ratioP1;P1;durP2;ratioP2;P2;SDS_P1;SDS_P2;PMS_P1;PMS_P2;Temp;Humidity;BMP_temperature;BMP_pressure;BME280_temperature;BME280_humidity;BME280_pressure;Samples;Min_cycle;Max_cycle;Signal;HPM_P1;HPM_P2
2022/10/12 00:00:17;;;;;;;;;10.75;10.50;;;;;21.50;52.36;101518.31;5059347;28;45216;-44
2022/10/12 00:02:42;;;;;;;;;15.00;11.50;;;;;21.50;52.28;101521.84;5059191;28;45292;-44
2022/10/12 00:05:08;;;;;;;;;8.00;8.00;;;;;21.50;52.03;101516.53;5060628;28;45374;-45
2022/10/12 00:07:33;;;;;;;;;10.25;9.00;;;;;21.51;52.39;101517.41;5060646;28;45360;-46
2022/10/12 00:09:59;;;;;;;;;12.75;10.00;;;;;21.50;52.21;101513.88;5061699;28;45375;-44
2022/10/12 00:12:24;;;;;;;;;11.50;8.75;;;;;21.49;52.27;101519.25;5060672;28;45362;-45
2022/10/12 00:14:49;;;;;;;;;12.50;10.50;;;;;21.49;51.70;101513.94;5060313;28;45933;-44
2022/10/12 00:17:15;;;;;;;;;11.75;9.75;;;;;21.50;51.99;101513.03;5069952;28;45359;-44
2022/10/12 00:19:40;;;;;;;;;9.25;8.50;;;;;21.51;51.82;101525.38;5062485;27;56932;-44
2022/10/12 00:22:06;;;;;;;;;9.75;9.75;;;;;21.49;52.14;101517.47;5059105;28;45396;-44
2022/10/12 00:24:31;;;;;;;;;10.25;8.00;;;;;21.49;51.67;101505.97;5058863;28;49681;-47
2022/10/12 00:26:56;;;;;;;;;16.00;11.75;;;;;21.49;51.60;101513.94;5070044;28;61156;-44
2022/10/12 00:29:22;;;;;;;;;12.25;9.50;;;;;21.49;51.82;101520.13;5071855;28;61799;-45
2022/10/12 00:31:47;;;;;;;;;11.50;9.00;;;;;21.49;52.11;101520.13;5060523;28;45453;-50
2022/10/12 00:34:13;;;;;;;;;13.00;10.00;;;;;21.50;52.38;101521.00;5058014;28;59563;-50
2022/10/12 00:36:38;;;;;;;;;11.25;11.25;;;;;21.51;51.71;101517.41;5051284;28;68436;-47
2022/10/12 00:39:04;;;;;;;;;10.25;8.00;;;;;21.50;51.36;101516.53;5062853;28;45327;-47
2022/10/12 00:41:32;;;;;;;;;10.75;9.50;;;;;21.50;51.35;101521.00;5042109;28;46063;-46
2022/10/12 00:43:57;;;;;;;;;9.50;9.50;;;;;21.50;51.60;101523.66;5060176;28;45404;-48
2022/10/12 00:46:37;;;;;;;;;9.00;7.75;;;;;21.50;51.25;101521.00;5059526;28;64320;-48
2022/10/12 00:49:12;;;;;;;;;12.25;10.50;;;;;21.50;51.62;101515.69;5058570;28;45253;-47
2022/10/12 00:51:38;;;;;;;;;14.25;11.50;;;;;21.49;51.53;101506.84;5060024;28;45375;-45
2022/10/12 00:54:05;;;;;;;;;10.50;10.00;;;;;21.50;51.10;101518.31;5063797;28;45227;-44
2022/10/12 00:56:32;;;;;;;;;13.25;12.25;;;;;21.49;51.16;101517.47;5076279;28;45383;-45
2022/10/12 00:58:58;;;;;;;;;10.75;10.50;;;;;21.49;51.57;101516.59;5063607;28;45296;-45
2022/10/12 01:01:24;;;;;;;;;9.00;9.00;;;;;21.49;51.33;101517.47;5040004;28;45441;-44
2022/10/12 01:03:49;;;;;;;;;14.00;11.00;;;;;21.49;51.42;101514.81;5062934;28;62204;-47
2022/10/12 01:06:14;;;;;;;;;12.50;11.00;;;;;21.51;51.07;101512.09;5075039;28;65547;-45
2022/10/12 01:08:40;;;;;;;;;13.75;12.50;;;;;21.50;50.91;101513.88;5061331;28;67431;-44
2022/10/12 01:11:05;;;;;;;;;10.25;9.25;;;;;21.52;51.12;101511.19;5064947;28;60974;-45
2022/10/12 01:13:31;;;;;;;;;12.25;9.00;;;;;21.51;51.44;101506.78;5062293;28;45565;-45
2022/10/12 01:16:27;;;;;;;;;8.75;8.50;;;;;21.50;51.17;101508.56;5062300;28;62646;-47
2022/10/12 01:19:24;;;;;;;;;10.75;9.75;;;;;21.51;51.31;101498.81;5063283;28;46133;-51
2022/10/12 01:21:58;;;;;;;;;10.75;9.25;;;;;21.51;50.79;101504.13;5070841;28;45472;-50
2022/10/12 01:24:49;;;;;;;;;10.00;10.00;;;;;21.50;50.43;101505.06;5062444;28;45365;-51
2022/10/12 01:27:17;;;;;;;;;9.00;9.00;;;;;21.51;50.77;101501.47;5063032;28;45365;-51
2022/10/12 01:30:04;;;;;;;;;8.75;7.75;;;;;21.51;50.23;101502.34;5069013;28;45336;-47
2022/10/12 01:32:54;;;;;;;;;12.25;10.50;;;;;21.52;50.17;101497.91;5078985;28;45200;-45
2022/10/12 01:35:40;;;;;;;;;15.50;13.00;;;;;21.52;50.47;101497.91;5062955;28;45496;-48
2022/10/12 01:38:33;;;;;;;;;12.00;9.75;;;;;21.52;50.60;101493.47;5071294;28;45454;-48
2022/10/12 01:41:09;;;;;;;;;12.25;10.50;;;;;21.52;50.58;101495.25;5081910;28;46421;-45
2022/10/12 01:43:37;;;;;;;;;11.75;10.50;;;;;21.52;49.86;101495.25;5065785;28;45299;-50
2022/10/12 01:46:25;;;;;;;;;15.75;11.75;;;;;21.51;50.26;101499.69;5083233;28;45451;-45
2022/10/12 01:48:53;;;;;;;;;10.00;10.00;;;;;21.52;50.13;101489.94;5066512;28;45264;-46
2022/10/12 01:51:23;;;;;;;;;12.00;9.25;;;;;21.50;49.89;101489.13;5061512;28;45186;-49
2022/10/12 01:54:11;;;;;;;;;14.50;11.25;;;;;21.52;49.51;101492.59;5061492;28;45360;-46
2022/10/12 01:56:41;;;;;;;;;13.50;12.50;;;;;21.50;49.55;101495.28;5058773;28;45293;-47
2022/10/12 01:59:24;;;;;;;;;12.00;10.00;;;;;21.51;49.67;101493.50;5070163;28;46019;-49
2022/10/12 02:02:01;;;;;;;;;16.00;12.25;;;;;21.51;49.99;101491.72;5077960;28;47238;-44
2022/10/12 02:04:32;;;;;;;;;13.75;10.00;;;;;21.50;49.54;101495.28;5072801;28;45434;-49
2022/10/12 02:07:07;;;;;;;;;11.50;11.25;;;;;21.50;49.60;101489.13;5074836;28;45270;-47
2022/10/12 02:09:33;;;;;;;;;11.50;10.75;;;;;21.50;49.68;101486.47;5063561;28;45639;-49
2022/10/12 02:12:08;;;;;;;;;11.50;11.25;;;;;21.50;49.37;101489.97;5061111;28;46113;-50
2022/10/12 02:14:39;;;;;;;;;11.00;9.50;;;;;21.51;49.28;101482.88;5074977;28;45566;-46
2022/10/12 02:17:06;;;;;;;;;9.25;9.25;;;;;21.50;49.84;101487.34;5062310;28;45216;-49
2022/10/12 02:19:38;;;;;;;;;11.00;9.00;;;;;21.51;49.31;101490.84;5060868;28;46870;-47
2022/10/12 02:22:04;;;;;;;;;9.50;8.75;;;;;21.51;49.30;101482.88;5044146;28;46195;-45
2022/10/12 02:24:32;;;;;;;;;9.25;9.25;;;;;21.50;48.69;101483.81;5060987;28;45314;-45
2022/10/12 02:26:57;;;;;;;;;12.75;8.25;;;;;21.50;49.39;101479.34;5051473;28;45484;-47
2022/10/12 02:29:30;;;;;;;;;12.75;12.00;;;;;21.49;48.92;101472.31;5044272;28;45294;-48
2022/10/12 02:32:16;;;;;;;;;14.00;11.00;;;;;21.50;48.65;101470.53;5072047;28;46206;-45
2022/10/12 02:34:54;;;;;;;;;8.00;8.00;;;;;21.50;49.51;101466.09;5066832;28;45263;-45
2022/10/12 02:37:28;;;;;;;;;10.25;10.00;;;;;21.49;49.07;101458.16;5078267;28;45397;-46
2022/10/12 02:39:54;;;;;;;;;12.25;9.75;;;;;21.49;48.93;101459.03;5060808;28;45258;-49
2022/10/12 02:42:26;;;;;;;;;8.75;8.75;;;;;21.49;49.27;101460.81;5061934;28;45468;-45
2022/10/12 02:44:52;;;;;;;;;10.50;9.25;;;;;21.50;48.87;101457.25;5055887;28;45315;-46
2022/10/12 02:47:17;;;;;;;;;14.00;13.00;;;;;21.49;48.86;101458.16;5063907;28;45519;-48
2022/10/12 02:49:43;;;;;;;;;12.00;10.00;;;;;21.47;48.36;101459.97;5069758;28;61677;-46
2022/10/12 02:52:08;;;;;;;;;12.00;10.00;;;;;21.46;49.19;101456.47;5059697;28;65506;-48
2022/10/12 02:54:33;;;;;;;;;11.75;9.25;;;;;21.46;49.14;101453.81;5061175;28;68342;-46
2022/10/12 02:56:59;;;;;;;;;11.25;9.50;;;;;21.47;49.18;101457.31;5059725;28;64169;-47
2022/10/12 02:59:24;;;;;;;;;7.25;7.00;;;;;21.47;48.37;101452.88;5060157;28;55367;-48
2022/10/12 03:01:49;;;;;;;;;8.00;8.00;;;;;21.47;48.11;101449.38;5060935;28;57803;-46
2022/10/12 03:04:15;;;;;;;;;11.00;9.50;;;;;21.48;48.44;101451.09;5060772;28;65587;-45
2022/10/12 03:06:41;;;;;;;;;11.00;10.25;;;;;21.47;48.46;101446.72;5060420;28;45670;-44
2022/10/12 03:09:07;;;;;;;;;9.25;9.25;;;;;21.47;48.39;101447.56;5061516;28;45441;-47
2022/10/12 03:11:32;;;;;;;;;9.50;8.50;;;;;21.47;48.47;101442.25;5063607;28;45823;-44
2022/10/12 03:13:57;;;;;;;;;11.75;10.00;;;;;21.47;48.13;101446.72;5060649;28;64723;-46
2022/10/12 03:16:23;;;;;;;;;9.50;9.00;;;;;21.47;47.61;101449.38;5042740;28;45327;-51
2022/10/12 03:18:50;;;;;;;;;9.75;7.00;;;;;21.45;48.01;101450.25;5070433;28;62612;-48
2022/10/12 03:21:15;;;;;;;;;12.50;9.50;;;;;21.46;48.30;101451.16;5063708;27;46215;-47
2022/10/12 03:23:41;;;;;;;;;8.75;8.25;;;;;21.45;48.10;101442.28;5071062;28;45315;-49
2022/10/12 03:26:06;;;;;;;;;9.75;9.25;;;;;21.46;48.39;101445.84;5064162;28;45223;-49
2022/10/12 03:28:31;;;;;;;;;10.00;9.00;;;;;21.45;48.08;101444.94;5060638;28;61746;-49
2022/10/12 03:30:57;;;;;;;;;13.25;9.25;;;;;21.43;47.90;101446.75;5077195;28;48541;-50
2022/10/12 03:33:22;;;;;;;;;9.25;8.00;;;;;21.45;48.15;101438.75;5071264;28;45408;-48
2022/10/12 03:35:48;;;;;;;;;10.75;9.00;;;;;21.42;48.17;101439.72;5042890;28;45381;-51
2022/10/12 03:38:14;;;;;;;;;12.75;9.00;;;;;21.42;47.79;101438.84;5061071;28;45311;-49
2022/10/12 03:40:39;;;;;;;;;11.25;8.00;;;;;21.42;47.81;101441.50;5078150;28;46274;-45
2022/10/12 03:43:05;;;;;;;;;12.00;10.75;;;;;21.39;47.78;101445.09;5081432;28;45370;-49
2022/10/12 03:45:30;;;;;;;;;9.25;8.00;;;;;21.39;47.42;101444.22;5080287;28;45251;-50
2022/10/12 03:47:56;;;;;;;;;7.00;6.50;;;;;21.39;47.26;101444.22;5081182;28;45548;-50
2022/10/12 03:50:21;;;;;;;;;9.00;9.00;;;;;21.41;47.46;101448.59;5081009;28;46326;-50
2022/10/12 03:52:47;;;;;;;;;8.75;8.75;;;;;21.40;47.54;101452.16;5081230;28;45440;-50
2022/10/12 03:55:12;;;;;;;;;8.00;8.00;;;;;21.40;47.09;101446.84;5063142;28;45375;-47
2022/10/12 03:57:38;;;;;;;;;8.50;7.50;;;;;21.39;47.78;101447.75;5080073;28;45454;-46
2022/10/12 04:00:03;;;;;;;;;8.75;8.25;;;;;21.39;47.68;101446.88;5080226;28;70875;-48
2022/10/12 04:02:29;;;;;;;;;9.50;8.00;;;;;21.38;47.77;101448.66;5070049;28;45303;-49
2022/10/12 04:04:54;;;;;;;;;11.25;11.25;;;;;21.39;47.59;101446.88;5076464;28;61507;-46
2022/10/12 04:07:20;;;;;;;;;10.00;10.00;;;;;21.39;47.10;101438.91;5080349;28;66208;-46
2022/10/12 04:09:46;;;;;;;;;8.25;7.75;;;;;21.38;47.40;101440.72;5078004;28;45289;-48
2022/10/12 04:12:11;;;;;;;;;9.00;7.50;;;;;21.38;47.40;101439.84;5060997;28;45235;-49
2022/10/12 04:14:37;;;;;;;;;9.50;8.75;;;;;21.37;47.24;101444.28;5060427;28;47622;-47
2022/10/12 04:17:03;;;;;;;;;11.75;9.25;;;;;21.37;46.94;101440.72;5059589;28;65300;-48
2022/10/12 04:19:28;;;;;;;;;8.75;8.75;;;;;21.37;48.19;101438.97;5058852;28;45907;-45
2022/10/12 04:21:53;;;;;;;;;5.50;5.50;;;;;21.36;47.91;101445.16;5059864;28;62444;-48
2022/10/12 04:24:19;;;;;;;;;12.25;8.50;;;;;21.32;48.33;101439.97;5059204;28;45354;-47
2022/10/12 04:26:44;;;;;;;;;8.25;8.25;;;;;21.28;48.21;101443.59;5059593;28;45402;-50
2022/10/12 04:29:11;;;;;;;;;8.00;8.00;;;;;21.25;48.43;101451.63;5058309;28;62421;-44
2022/10/12 04:31:36;;;;;;;;;8.00;7.75;;;;;21.21;48.86;101453.47;5060186;28;45305;-48
2022/10/12 04:34:02;;;;;;;;;9.50;9.00;;;;;21.17;49.05;101457.09;5071766;28;64536;-46
2022/10/12 04:36:27;;;;;;;;;10.00;9.75;;;;;21.14;49.27;101466.00;5060339;28;45758;-46
2022/10/12 04:38:53;;;;;;;;;8.25;7.75;;;;;21.12;49.22;101464.31;5061617;28;70304;-47
2022/10/12 04:41:19;;;;;;;;;9.50;9.50;;;;;21.08;49.40;101463.50;5079737;28;67525;-48
2022/10/12 04:43:44;;;;;;;;;10.75;10.25;;;;;21.07;49.47;101468.84;5079179;28;45451;-49
2022/10/12 04:46:10;;;;;;;;;9.25;8.25;;;;;21.06;49.64;101461.78;5079654;28;64770;-47
2022/10/12 04:48:35;;;;;;;;;9.25;7.50;;;;;21.05;49.73;101462.69;5080299;28;46224;-47
2022/10/12 04:51:01;;;;;;;;;9.75;7.50;;;;;21.03;49.55;101462.75;5079401;28;65632;-45
2022/10/12 04:53:28;;;;;;;;;9.00;9.00;;;;;21.02;50.00;101460.09;5079776;28;53084;-48
2022/10/12 04:55:53;;;;;;;;;8.25;8.25;;;;;21.03;50.13;101451.25;5080387;28;45183;-48
2022/10/12 04:58:18;;;;;;;;;9.50;9.50;;;;;21.03;50.25;101453.91;5079347;28;67397;-46
2022/10/12 05:00:45;;;;;;;;;9.00;8.50;;;;;21.01;50.15;101451.25;5078261;28;70574;-45
2022/10/12 05:03:10;;;;;;;;;11.50;8.50;;;;;21.00;50.27;101451.28;5061982;28;46461;-49
2022/10/12 05:05:36;;;;;;;;;13.00;8.00;;;;;20.99;50.47;101455.75;5079836;28;52287;-47
2022/10/12 05:08:02;;;;;;;;;13.00;11.25;;;;;20.98;50.46;101447.81;5079281;28;61404;-45
2022/10/12 05:10:27;;;;;;;;;9.00;9.00;;;;;20.97;50.54;101446.94;5071566;28;45334;-43
2022/10/12 05:12:52;;;;;;;;;8.75;8.00;;;;;20.95;50.65;101443.47;5059262;28;59178;-45
2022/10/12 05:15:18;;;;;;;;;10.00;8.00;;;;;20.94;50.57;101447.03;5059798;28;45243;-48
2022/10/12 05:17:44;;;;;;;;;13.50;8.75;;;;;20.93;50.37;101445.25;5058142;28;45341;-46
2022/10/12 05:20:09;;;;;;;;;12.25;10.25;;;;;20.94;50.71;101446.13;5059558;28;45310;-47
2022/10/12 05:22:35;;;;;;;;;10.50;9.00;;;;;20.95;50.88;101450.53;5059776;28;45275;-48
2022/10/12 05:25:01;;;;;;;;;11.75;9.50;;;;;20.94;50.68;101443.47;5068829;28;45814;-44
2022/10/12 05:27:26;;;;;;;;;10.00;8.00;;;;;20.94;50.65;101441.72;5065557;28;46453;-44
2022/10/12 05:29:51;;;;;;;;;9.00;8.00;;;;;20.95;50.56;101450.53;5079297;28;60227;-44
2022/10/12 05:32:17;;;;;;;;;8.75;8.00;;;;;20.95;51.12;101455.84;5060320;28;60079;-47
2022/10/12 05:34:43;;;;;;;;;10.00;8.75;;;;;20.94;51.00;101454.06;5059354;28;45280;-45
2022/10/12 05:37:08;;;;;;;;;12.50;9.50;;;;;20.94;51.49;101459.38;5059115;28;46350;-45
2022/10/12 05:39:36;;;;;;;;;8.00;8.00;;;;;20.94;51.48;101468.25;5062231;28;45372;-45
2022/10/12 05:42:01;;;;;;;;;7.25;7.25;;;;;20.94;51.69;101460.28;5063047;28;45367;-44
2022/10/12 05:44:27;;;;;;;;;10.00;9.25;;;;;20.93;51.85;101455.00;5062938;28;46477;-45
2022/10/12 05:46:52;;;;;;;;;11.50;11.00;;;;;20.92;51.62;101447.94;5068418;28;64685;-45
2022/10/12 05:49:17;;;;;;;;;9.25;9.25;;;;;20.92;51.87;101461.22;5077294;28;65211;-45
2022/10/12 05:51:43;;;;;;;;;9.25;9.25;;;;;20.92;51.74;101458.56;5065708;28;45838;-49
2022/10/12 05:54:08;;;;;;;;;11.50;10.00;;;;;20.91;51.61;101457.69;5073371;28;45330;-44
2022/10/12 05:56:34;;;;;;;;;12.25;10.75;;;;;20.91;52.14;101454.16;5076777;28;45514;-44
2022/10/12 05:58:59;;;;;;;;;9.75;9.75;;;;;20.91;51.96;101454.16;5062584;28;45342;-46
2022/10/12 06:01:25;;;;;;;;;14.25;9.75;;;;;20.89;52.17;101444.47;5055624;28;45776;-43
2022/10/12 06:03:50;;;;;;;;;10.50;9.50;;;;;20.88;52.20;101445.38;5071242;28;63149;-50
2022/10/12 06:06:16;;;;;;;;;11.25;10.00;;;;;20.91;52.16;101446.19;5067583;28;45447;-49
2022/10/12 06:08:41;;;;;;;;;10.00;9.50;;;;;20.94;52.17;101448.78;5029757;28;61958;-51
2022/10/12 06:11:07;;;;;;;;;8.25;8.00;;;;;20.97;52.36;101454.03;5073792;28;45248;-48
2022/10/12 06:13:32;;;;;;;;;15.00;9.00;;;;;20.99;52.36;101452.22;5082308;28;49171;-50
2022/10/12 06:15:57;;;;;;;;;12.00;10.25;;;;;21.03;52.07;101451.25;5082126;28;53484;-50
2022/10/12 06:18:23;;;;;;;;;13.00;10.00;;;;;21.04;51.98;101450.34;5081870;28;45283;-57
2022/10/12 06:20:51;;;;;;;;;11.75;8.75;;;;;21.07;51.91;101453.78;5074544;28;45551;-56
2022/10/12 06:23:16;;;;;;;;;11.25;9.75;;;;;21.08;51.69;101452.00;5062231;28;45520;-59
2022/10/12 06:25:42;;;;;;;;;10.25;8.25;;;;;21.08;51.73;101449.34;5062084;28;45301;-59
2022/10/12 06:28:07;;;;;;;;;12.00;9.25;;;;;21.11;51.93;101460.78;5053772;28;45317;-59
2022/10/12 06:30:32;;;;;;;;;14.00;8.00;;;;;21.14;52.01;101458.06;5066433;28;45383;-59
2022/10/12 06:32:58;;;;;;;;;12.50;7.75;;;;;21.13;51.89;101466.06;5061525;28;68800;-58
2022/10/12 06:35:23;;;;;;;;;11.75;8.75;;;;;21.14;51.39;101471.31;5071620;28;68175;-58
2022/10/12 06:37:49;;;;;;;;;11.50;10.25;;;;;21.15;51.34;101477.50;5072907;28;45354;-58
2022/10/12 06:40:15;;;;;;;;;8.25;7.25;;;;;21.18;51.71;101474.75;5072378;28;45464;-57
2022/10/12 06:42:41;;;;;;;;;8.25;8.25;;;;;21.19;51.24;101468.53;5082283;28;45274;-58
2022/10/12 06:45:06;;;;;;;;;16.00;7.25;;;;;21.20;51.44;101478.28;5064038;28;45297;-58
2022/10/12 06:47:32;;;;;;;;;9.00;8.00;;;;;21.20;51.12;101480.94;5080666;28;45244;-58
2022/10/12 06:49:57;;;;;;;;;11.25;9.50;;;;;21.22;50.93;101479.13;5074655;28;62533;-58
2022/10/12 06:52:22;;;;;;;;;10.25;7.00;;;;;21.24;51.17;101482.59;5074885;28;57567;-58
2022/10/12 06:54:48;;;;;;;;;7.75;7.75;;;;;21.25;50.89;101480.81;5065627;28;45390;-58
2022/10/12 06:57:13;;;;;;;;;12.50;8.50;;;;;21.24;51.18;101485.25;5059666;28;65464;-58
2022/10/12 06:59:39;;;;;;;;;10.50;8.75;;;;;21.26;50.78;101485.22;5060211;28;53129;-58
2022/10/12 07:02:04;;;;;;;;;10.50;7.00;;;;;21.26;50.90;101485.22;5064031;28;57071;-58
2022/10/12 07:04:30;;;;;;;;;10.00;9.00;;;;;21.26;50.60;101488.75;5061201;28;46640;-58
2022/10/12 07:06:55;;;;;;;;;13.75;10.50;;;;;21.25;50.45;101481.69;5062135;28;67047;-58
2022/10/12 07:09:20;;;;;;;;;9.75;8.00;;;;;21.27;50.93;101489.66;5071568;27;45468;-60
2022/10/12 07:11:46;;;;;;;;;6.00;6.00;;;;;21.27;50.77;101487.84;5080518;28;53244;-58
2022/10/12 07:14:11;;;;;;;;;9.00;9.00;;;;;21.30;51.08;101492.25;5077295;27;45555;-59
2022/10/12 07:16:37;;;;;;;;;10.00;9.00;;;;;21.32;50.76;101487.78;5067885;27;45391;-59
2022/10/12 07:19:02;;;;;;;;;10.25;8.25;;;;;21.33;50.48;101486.84;5066856;28;57334;-60
2022/10/12 07:21:27;;;;;;;;;9.50;9.00;;;;;21.33;50.77;101482.41;5062171;28;63372;-58
2022/10/12 07:23:53;;;;;;;;;11.50;9.50;;;;;21.36;50.66;101492.09;5070865;28;56612;-58
2022/10/12 07:26:19;;;;;;;;;9.50;8.00;;;;;21.37;50.67;101492.06;5048944;28;45639;-59
2022/10/12 07:28:44;;;;;;;;;8.50;8.00;;;;;21.38;50.65;101496.47;5062467;28;45579;-57
2022/10/12 07:31:10;;;;;;;;;8.25;8.25;;;;;21.40;50.32;101499.09;5071994;28;45649;-58
2022/10/12 07:33:37;;;;;;;;;10.00;9.50;;;;;21.41;50.22;101507.00;5072283;28;50449;-58
2022/10/12 07:36:03;;;;;;;;;12.75;8.50;;;;;21.41;50.53;101503.47;5064300;27;46052;-59
2022/10/12 07:38:28;;;;;;;;;8.75;6.50;;;;;21.41;50.54;101496.38;5080473;28;45282;-59
2022/10/12 07:40:54;;;;;;;;;9.50;9.50;;;;;21.45;50.64;101510.47;5078114;28;45227;-59
2022/10/12 07:43:19;;;;;;;;;10.25;8.50;;;;;21.45;50.43;101508.66;5062959;28;52305;-59
2022/10/12 07:45:45;;;;;;;;;12.00;9.50;;;;;21.47;50.72;101510.44;5060193;27;45352;-59
2022/10/12 07:48:10;;;;;;;;;9.75;8.50;;;;;21.48;50.71;101512.19;5060155;28;56605;-59
2022/10/12 07:50:36;;;;;;;;;10.75;9.25;;;;;21.49;50.52;101517.47;5059004;28;45265;-58
2022/10/12 07:53:01;;;;;;;;;10.50;9.00;;;;;21.49;50.55;101522.78;5064810;28;45365;-58
2022/10/12 07:55:27;;;;;;;;;9.00;9.00;;;;;21.50;50.21;101524.50;5064073;28;56207;-60
2022/10/12 07:57:52;;;;;;;;;6.50;6.50;;;;;21.51;50.25;101520.94;5065389;28;45441;-58
2022/10/12 08:00:19;;;;;;;;;11.50;9.75;;;;;21.52;50.55;101522.69;5080178;28;64324;-60
2022/10/12 08:02:45;;;;;;;;;7.75;6.75;;;;;21.52;50.42;101520.03;5061670;27;46147;-59
2022/10/12 08:05:10;;;;;;;;;9.75;9.25;;;;;21.52;50.10;101525.34;5059284;28;45225;-59
2022/10/12 08:07:36;;;;;;;;;18.25;15.25;;;;;21.31;46.57;101524.06;5069621;28;59789;-60
2022/10/12 08:10:01;;;;;;;;;19.25;18.00;;;;;20.74;45.44;101524.38;5078353;28;45476;-61
2022/10/12 08:12:27;;;;;;;;;18.00;16.75;;;;;20.20;45.97;101536.88;5064371;27;45954;-60
2022/10/12 08:14:52;;;;;;;;;21.75;19.75;;;;;19.90;45.78;101533.88;5060712;28;45494;-60
2022/10/12 08:17:17;;;;;;;;;21.25;18.75;;;;;19.55;46.66;101533.53;5080147;28;58290;-61
2022/10/12 08:19:43;;;;;;;;;23.25;21.25;;;;;19.28;46.31;101534.75;5059395;27;65620;-61
2022/10/12 08:22:10;;;;;;;;;26.25;22.00;;;;;18.99;46.72;101533.41;5072066;28;50393;-61
2022/10/12 08:24:36;;;;;;;;;22.75;21.00;;;;;18.81;47.48;101534.50;5060440;28;45421;-62
2022/10/12 08:27:01;;;;;;;;;22.75;21.50;;;;;18.70;47.07;101530.25;5060405;28;45369;-64
2022/10/12 08:29:27;;;;;;;;;27.75;23.25;;;;;18.47;46.90;101536.63;5066801;28;45433;-62
2022/10/12 08:31:53;;;;;;;;;26.00;21.75;;;;;18.28;47.75;101543.84;5054689;28;47230;-62
2022/10/12 08:34:18;;;;;;;;;32.50;25.00;;;;;18.10;47.87;101537.88;5060777;28;45380;-63
2022/10/12 08:36:44;;;;;;;;;21.75;21.50;;;;;18.02;47.90;101537.94;5074308;28;45292;-62
2022/10/12 08:39:09;;;;;;;;;22.25;20.00;;;;;17.92;47.84;101537.16;5074646;28;45268;-63
2022/10/12 08:41:49;;;;;;;;;27.25;23.00;;;;;17.83;47.97;101531.06;5069304;28;46028;-62
2022/10/12 08:44:20;;;;;;;;;26.75;22.00;;;;;17.77;48.19;101543.41;5058539;28;45537;-59
2022/10/12 08:46:46;;;;;;;;;25.00;23.25;;;;;17.74;48.76;101542.56;5067548;28;45247;-50
2022/10/12 08:49:16;;;;;;;;;27.25;24.00;;;;;17.74;49.24;101539.94;5066669;28;45547;-52
2022/10/12 08:51:58;;;;;;;;;24.00;20.50;;;;;17.71;49.09;101542.56;5049396;28;46219;-48
2022/10/12 08:54:27;;;;;;;;;23.00;20.25;;;;;17.69;49.43;101544.31;5070106;28;45479;-50
2022/10/12 08:56:52;;;;;;;;;24.50;22.25;;;;;17.69;49.34;101549.59;5071960;28;45358;-50
2022/10/12 08:59:18;;;;;;;;;18.50;16.50;;;;;17.69;49.22;101555.75;5041760;28;45333;-53
2022/10/12 09:01:52;;;;;;;;;26.75;23.25;;;;;17.71;49.24;101554.00;5068901;28;46265;-51
2022/10/12 09:04:36;;;;;;;;;30.25;25.00;;;;;17.73;49.30;101554.91;5059140;28;45359;-51
2022/10/12 09:07:04;;;;;;;;;22.75;20.25;;;;;17.80;49.54;101553.06;5059640;28;45417;-56
2022/10/12 09:09:55;;;;;;;;;24.50;21.50;;;;;17.85;49.89;101551.28;5072154;28;45304;-58
2022/10/12 09:12:32;;;;;;;;;25.25;22.75;;;;;17.97;49.58;101545.88;5073974;27;46312;-55
2022/10/12 09:15:01;;;;;;;;;23.00;22.00;;;;;17.99;49.80;101541.50;5062369;28;46815;-57
2022/10/12 09:17:37;;;;;;;;;30.75;24.00;;;;;18.07;50.07;101544.94;5055334;28;45589;-51
2022/10/12 09:20:05;;;;;;;;;23.75;22.50;;;;;18.15;49.70;101536.91;5063127;28;46920;-58
2022/10/12 09:22:31;;;;;;;;;19.75;18.00;;;;;18.25;50.59;101543.03;5075808;27;45355;-49
2022/10/12 09:24:57;;;;;;;;;18.75;17.00;;;;;18.42;50.79;101538.44;5068526;27;45436;-48
2022/10/12 09:27:22;;;;;;;;;20.75;16.25;;;;;18.62;50.60;101528.53;5067571;28;45358;-50
2022/10/12 09:29:54;;;;;;;;;24.00;20.50;;;;;18.82;51.25;101527.44;5058736;28;46061;-48
2022/10/12 09:32:32;;;;;;;;;18.00;16.25;;;;;19.01;51.17;101528.06;5075144;28;46451;-49
2022/10/12 09:34:58;;;;;;;;;20.00;18.25;;;;;19.15;50.96;101524.38;5070167;28;45280;-49
2022/10/12 09:37:25;;;;;;;;;16.25;15.75;;;;;19.30;50.83;101520.63;5059816;28;45668;-51
2022/10/12 09:39:51;;;;;;;;;17.75;14.75;;;;;19.43;50.59;101523.97;5068928;28;45172;-46
2022/10/12 09:42:16;;;;;;;;;18.00;16.00;;;;;19.52;50.42;101521.19;5057200;28;47261;-50
2022/10/12 09:44:47;;;;;;;;;16.75;15.00;;;;;19.64;50.64;101517.53;5070575;28;45358;-44
2022/10/12 09:47:27;;;;;;;;;19.50;18.25;;;;;19.73;50.46;101510.31;5081326;28;45434;-46
2022/10/12 09:49:57;;;;;;;;;17.00;14.50;;;;;19.83;50.17;101518.09;5076067;28;45521;-46
2022/10/12 09:52:28;;;;;;;;;18.75;18.00;;;;;19.90;50.21;101501.19;5071453;28;46191;-44
2022/10/12 09:55:14;;;;;;;;;17.75;14.75;;;;;19.97;50.57;101509.00;5054877;28;45412;-46
2022/10/12 09:57:41;;;;;;;;;19.75;16.25;;;;;20.03;50.44;101508.88;5046504;28;45427;-48
2022/10/12 10:00:26;;;;;;;;;18.25;17.00;;;;;20.09;50.55;101505.28;5055390;28;45521;-47
2022/10/12 10:02:52;;;;;;;;;22.50;18.75;;;;;20.16;50.66;101508.69;5079309;28;45255;-47
2022/10/12 10:05:27;;;;;;;;;14.00;13.00;;;;;20.22;50.66;101508.56;5075576;28;45493;-47
2022/10/12 10:07:53;;;;;;;;;22.75;20.25;;;;;20.26;50.71;101502.31;5062217;28;45359;-46
2022/10/12 10:10:21;;;;;;;;;20.75;17.25;;;;;20.31;50.67;101503.09;5066265;28;45281;-44
2022/10/12 10:12:57;;;;;;;;;17.25;16.25;;;;;20.36;50.71;101497.72;5069974;28;46665;-44
2022/10/12 10:15:29;;;;;;;;;17.00;16.75;;;;;20.39;50.91;101495.00;5052419;28;45407;-50
2022/10/12 10:17:58;;;;;;;;;19.25;15.50;;;;;20.42;51.00;101492.28;5061017;28;45217;-46
2022/10/12 10:20:41;;;;;;;;;19.25;16.25;;;;;20.45;51.21;101493.13;5075261;28;45289;-51
2022/10/12 10:23:26;;;;;;;;;16.25;15.25;;;;;20.49;51.01;101501.88;5043885;28;46278;-50
2022/10/12 10:26:09;;;;;;;;;19.50;15.75;;;;;20.52;50.83;101494.75;5041078;28;45274;-51
2022/10/12 10:28:39;;;;;;;;;16.75;14.50;;;;;20.54;51.11;101492.06;5057214;28;45450;-46
2022/10/12 10:31:26;;;;;;;;;16.50;15.00;;;;;20.57;51.03;101486.69;5063732;28;45927;-45
2022/10/12 10:34:15;;;;;;;;;18.25;15.25;;;;;20.60;51.14;101484.88;5081304;28;47122;-50
2022/10/12 10:36:49;;;;;;;;;15.25;12.75;;;;;20.64;51.25;101487.47;5082172;28;45287;-45
2022/10/12 10:39:25;;;;;;;;;15.25;14.00;;;;;20.66;51.32;101486.50;5082023;28;45440;-46
2022/10/12 10:41:52;;;;;;;;;20.00;16.25;;;;;20.70;51.44;101487.34;5061533;28;46288;-46
2022/10/12 10:44:27;;;;;;;;;13.50;13.25;;;;;20.72;51.46;101481.09;5044580;28;45983;-44
2022/10/12 10:46:59;;;;;;;;;21.75;14.75;;;;;20.74;51.17;101481.91;5060220;28;45335;-45
2022/10/12 10:49:29;;;;;;;;;15.50;13.25;;;;;20.76;51.37;101485.44;5079058;28;45295;-46
2022/10/12 10:51:56;;;;;;;;;19.75;16.75;;;;;20.80;51.23;101483.59;5069744;28;45363;-48
2022/10/12 10:54:21;;;;;;;;;16.00;14.75;;;;;20.82;51.19;101481.75;5060205;28;46232;-50
2022/10/12 10:56:49;;;;;;;;;19.00;16.25;;;;;20.85;51.26;101479.06;5070924;28;45452;-46
2022/10/12 10:59:51;;;;;;;;;19.25;17.75;;;;;20.87;51.30;101475.47;5067457;28;45455;-45
2022/10/12 11:02:35;;;;;;;;;17.00;13.75;;;;;20.88;51.51;101479.84;5056949;28;46022;-45
2022/10/12 11:05:11;;;;;;;;;23.00;15.50;;;;;20.89;51.51;101481.59;5071090;27;46381;-44
2022/10/12 11:07:43;;;;;;;;;18.25;14.00;;;;;20.91;51.50;101484.22;5070837;27;45639;-45
2022/10/12 11:10:33;;;;;;;;;19.00;15.50;;;;;20.91;51.43;101478.91;5070788;28;45318;-45
2022/10/12 11:13:22;;;;;;;;;15.25;15.25;;;;;20.92;51.62;101480.66;5076616;28;46275;-47
2022/10/12 11:15:55;;;;;;;;;17.00;13.00;;;;;20.92;51.57;101479.78;5060522;28;45453;-46
2022/10/12 11:18:41;;;;;;;;;15.00;12.75;;;;;20.91;51.59;101478.91;5066812;28;46684;-45
2022/10/12 11:21:17;;;;;;;;;18.25;15.75;;;;;20.90;51.66;101474.50;5074623;28;45483;-46
2022/10/12 11:23:50;;;;;;;;;16.25;13.25;;;;;20.90;51.76;101466.56;5051497;28;45272;-47